createdAt,value
2022-09-11T00:02:17.653Z,100876.28
2022-09-11T00:04:49.050Z,100878.16
2022-09-11T00:07:20.400Z,100879.09
2022-09-11T00:09:52.018Z,100878.91
2022-09-11T00:12:23.351Z,100891.97
2022-09-11T00:14:54.658Z,100843.94
2022-09-11T00:17:26.023Z,100888.63
2022-09-11T00:19:57.452Z,100873.84
2022-09-11T00:22:28.750Z,100884.66
2022-09-11T00:25:00.297Z,100838.19
2022-09-11T00:27:31.637Z,100894.22
2022-09-11T00:30:03.580Z,100870.44
2022-09-11T00:32:34.881Z,100901.94
2022-09-11T00:35:06.814Z,100829.09
2022-09-11T00:37:38.213Z,100840.34
2022-09-11T00:40:10.126Z,100887.59
2022-09-11T00:42:42.298Z,100884.25
2022-09-11T00:45:32.333Z,100840.81
2022-09-11T00:48:04.048Z,100872.34
2022-09-11T00:50:35.791Z,100858.34
2022-09-11T00:53:09.990Z,100863.47
2022-09-11T00:55:44.815Z,100891.44
2022-09-11T00:58:19.574Z,100889.50
2022-09-11T01:00:54.107Z,100880.38
2022-09-11T01:03:27.597Z,100883.63
2022-09-11T01:05:59.541Z,100900.84
2022-09-11T01:08:32.066Z,100895.41
2022-09-11T01:11:26.279Z,100873.25
2022-09-11T01:14:05.041Z,100903.75
2022-09-11T01:16:42.839Z,100885.91
2022-09-11T01:19:39.362Z,100898.09
2022-09-11T01:22:43.950Z,100898.97
2022-09-11T01:25:30.317Z,100901.53
2022-09-11T01:28:13.976Z,100883.91
2022-09-11T01:30:54.343Z,100850.69
2022-09-11T01:33:59.956Z,100903.06
2022-09-11T01:36:53.178Z,100850.69
2022-09-11T01:39:33.350Z,100897.72
2022-09-11T01:42:10.752Z,100853.97
2022-09-11T01:44:48.875Z,100906.38
2022-09-11T01:47:22.110Z,100904.41
2022-09-11T01:49:58.489Z,100857.28
2022-09-11T01:52:50.281Z,100861.53
2022-09-11T01:55:44.672Z,100916.47
2022-09-11T01:58:23.193Z,100887.59
2022-09-11T02:01:02.814Z,100888.50
2022-09-11T02:03:39.286Z,100877.03
2022-09-11T02:06:28.289Z,100913.53
2022-09-11T02:09:06.147Z,100869.84
2022-09-11T02:11:41.004Z,100906.59
2022-09-11T02:14:18.176Z,100930.34
2022-09-11T02:16:51.929Z,100875.09
2022-09-11T02:19:27.515Z,100869.63
2022-09-11T02:21:59.076Z,100909.75
2022-09-11T02:24:30.549Z,100932.66
2022-09-11T02:27:06.263Z,100911.50
2022-09-11T02:29:39.108Z,100929.97
2022-09-11T02:32:11.116Z,100928.06
2022-09-11T02:34:45.286Z,100929.00
2022-09-11T02:37:45.521Z,100933.19
2022-09-11T02:40:31.304Z,100907.97
2022-09-11T02:43:30.930Z,100951.81
2022-09-11T02:46:24.175Z,100950.88
2022-09-11T02:49:18.970Z,100954.38
2022-09-11T02:52:12.832Z,100948.91
2022-09-11T02:55:03.862Z,100949.91
2022-09-11T02:57:42.426Z,100949.84
2022-09-11T03:00:13.885Z,100963.88
2022-09-11T03:02:47.563Z,100931.34
2022-09-11T03:05:19.264Z,100962.91
2022-09-11T03:07:50.644Z,100963.84
2022-09-11T03:10:22.155Z,100919.22
2022-09-11T03:12:55.201Z,100959.41
2022-09-11T03:15:27.327Z,100968.91
2022-09-11T03:17:58.717Z,100969.84
2022-09-11T03:20:29.988Z,100971.59
2022-09-11T03:23:01.390Z,100947.06
2022-09-11T03:25:33.805Z,100966.28
2022-09-11T03:28:05.623Z,100968.16
2022-09-11T03:30:37.001Z,100925.38
2022-09-11T03:33:08.880Z,100961.03
2022-09-11T03:35:40.155Z,100925.38
2022-09-11T03:38:12.245Z,100956.84
2022-09-11T03:40:44.489Z,100963.84
2022-09-11T03:43:16.645Z,100974.38
2022-09-11T03:45:54.481Z,100928.88
2022-09-11T03:48:26.351Z,100933.31
2022-09-11T03:50:58.878Z,100950.78
2022-09-11T03:53:32.888Z,100974.66
2022-09-11T03:56:05.213Z,100939.03
2022-09-11T03:58:37.096Z,100949.63
2022-09-11T04:01:13.914Z,100969.75
2022-09-11T04:03:45.376Z,100964.72
2022-09-11T04:06:16.871Z,100969.25
2022-09-11T04:08:48.180Z,100978.09
2022-09-11T04:11:19.555Z,100957.59
2022-09-11T04:13:51.828Z,100954.81
2022-09-11T04:16:23.280Z,100970.66
2022-09-11T04:18:55.550Z,100954.81
2022-09-11T04:21:27.735Z,100971.25
2022-09-11T04:24:00.297Z,100965.16
2022-09-11T04:26:33.190Z,100969.47
2022-09-11T04:29:04.597Z,100965.19
2022-09-11T04:31:36.575Z,100958.09
2022-09-11T04:34:09.446Z,100976.63
2022-09-11T04:36:40.844Z,100982.91
2022-09-11T04:39:12.196Z,100989.03
2022-09-11T04:41:44.442Z,100971.66
2022-09-11T04:44:15.906Z,101000.72
2022-09-11T04:46:47.665Z,100999.63
2022-09-11T04:49:19.225Z,101007.81
2022-09-11T04:51:50.554Z,100979.06
2022-09-11T04:54:22.074Z,101011.38
2022-09-11T04:56:54.652Z,100983.22
2022-09-11T04:59:26.019Z,100980.59
2022-09-11T05:01:57.784Z,101011.16
2022-09-11T05:04:29.220Z,101006.78
2022-09-11T05:07:00.631Z,101003.44
2022-09-11T05:09:31.990Z,101016.72
2022-09-11T05:12:04.073Z,101014.25
2022-09-11T05:14:35.781Z,101034.63
2022-09-11T05:17:07.098Z,101029.34
2022-09-11T05:19:38.891Z,101005.94
2022-09-11T05:22:10.253Z,101042.94
2022-09-11T05:24:41.712Z,101026.25
2022-09-11T05:27:14.057Z,101033.41
2022-09-11T05:29:45.769Z,101046.44
2022-09-11T05:32:17.220Z,101028.06
2022-09-11T05:34:48.940Z,101041.28
2022-09-11T05:37:20.270Z,101047.47
2022-09-11T05:39:51.921Z,101051.06
2022-09-11T05:42:23.295Z,101053.69
2022-09-11T05:44:55.013Z,101006.19
2022-09-11T05:47:26.357Z,101005.47
2022-09-11T05:49:57.826Z,101058.00
2022-09-11T05:52:30.359Z,101032.81
2022-09-11T05:55:02.010Z,101024.88
2022-09-11T05:57:33.371Z,101058.13
2022-09-11T06:00:05.579Z,101069.53
2022-09-11T06:02:36.867Z,101084.63
2022-09-11T06:05:09.031Z,101056.63
2022-09-11T06:07:40.638Z,101080.41
2022-09-11T06:10:12.524Z,101095.22
2022-09-11T06:12:43.938Z,101040.88
2022-09-11T06:15:36.356Z,101095.22
2022-09-11T06:18:07.842Z,101075.88
2022-09-11T06:20:40.294Z,101095.03
2022-09-11T06:23:11.922Z,101070.63
2022-09-11T06:25:43.261Z,101103.06
2022-09-11T06:28:14.690Z,101066.97
2022-09-11T06:30:49.050Z,101057.28
2022-09-11T06:33:20.683Z,101100.06
2022-09-11T06:35:58.640Z,101095.53
2022-09-11T06:38:31.798Z,101111.34
2022-09-11T06:41:05.430Z,101105.25
2022-09-11T06:43:36.757Z,101111.59
2022-09-11T06:46:19.898Z,101081.47
2022-09-11T06:48:52.066Z,101104.22
2022-09-11T06:51:23.906Z,101078.97
2022-09-11T06:53:57.779Z,101063.63
2022-09-11T06:56:32.312Z,101105.50
2022-09-11T06:59:03.673Z,101111.56
2022-09-11T07:01:35.318Z,101120.22
2022-09-11T07:04:06.679Z,101108.50
2022-09-11T07:06:38.574Z,101107.63
2022-09-11T07:09:11.263Z,101077.66
2022-09-11T07:11:44.864Z,101112.53
2022-09-11T07:14:21.126Z,101078.25
2022-09-11T07:16:55.160Z,101103.34
2022-09-11T07:19:27.541Z,101116.59
2022-09-11T07:21:59.163Z,101063.00
2022-09-11T07:24:30.457Z,101114.91
2022-09-11T07:27:01.861Z,101121.69
2022-09-11T07:29:33.452Z,101133.50
2022-09-11T07:32:04.866Z,101078.25
2022-09-11T07:34:36.232Z,101123.66
2022-09-11T07:37:07.588Z,101110.72
2022-09-11T07:39:39.562Z,101136.25
2022-09-11T07:42:11.013Z,101143.31
2022-09-11T07:44:42.379Z,101146.00
2022-09-11T07:47:13.765Z,101106.53
2022-09-11T07:49:48.032Z,101138.94
2022-09-11T07:52:20.532Z,101143.38
2022-09-11T07:54:52.098Z,101120.56
2022-09-11T07:57:24.193Z,101141.31
2022-09-11T07:59:55.553Z,101135.09
2022-09-11T08:02:26.952Z,101127.84
2022-09-11T08:04:58.408Z,101127.38
2022-09-11T08:07:29.716Z,101130.09
2022-09-11T08:10:23.756Z,101153.84
2022-09-11T08:12:55.703Z,101163.22
2022-09-11T08:15:29.467Z,101156.97
2022-09-11T08:18:00.902Z,101154.16
2022-09-11T08:20:32.558Z,101170.09
2022-09-11T08:23:03.986Z,101145.72
2022-09-11T08:25:39.061Z,101143.09
2022-09-11T08:28:11.175Z,101194.56
2022-09-11T08:30:42.592Z,101143.06
2022-09-11T08:33:14.032Z,101144.19
2022-09-11T08:35:45.430Z,101178.13
2022-09-11T08:38:17.836Z,101177.19
2022-09-11T08:40:49.438Z,101182.16
2022-09-11T08:43:33.303Z,101184.44
2022-09-11T08:46:09.460Z,101145.53
2022-09-11T08:49:10.772Z,101195.84
2022-09-11T08:51:44.778Z,101199.03
2022-09-11T08:54:27.588Z,101178.09
2022-09-11T08:57:28.882Z,101156.41
2022-09-11T09:00:19.445Z,101149.25
2022-09-11T09:03:35.612Z,101155.31
2022-09-11T09:06:43.361Z,101205.00
2022-09-11T09:09:46.647Z,101181.41
2022-09-11T09:12:36.825Z,101203.97
2022-09-11T09:15:34.333Z,101210.41
2022-09-11T09:18:17.700Z,101205.63
2022-09-11T09:21:06.308Z,101202.47
2022-09-11T09:24:08.401Z,101205.63
2022-09-11T09:26:40.891Z,101180.41
2022-09-11T09:29:22.800Z,101173.41
2022-09-11T09:32:01.907Z,101199.72
2022-09-11T09:34:37.369Z,101205.00
2022-09-11T09:37:17.948Z,101196.59
2022-09-11T09:39:50.573Z,101187.84
2022-09-11T09:42:38.970Z,101205.53
2022-09-11T09:45:39.741Z,101210.13
2022-09-11T09:48:11.818Z,101200.88
2022-09-11T09:50:44.673Z,101188.47
2022-09-11T09:53:27.327Z,101219.06
2022-09-11T09:56:00.488Z,101195.78
2022-09-11T09:58:42.685Z,101185.56
2022-09-11T10:01:39.512Z,101204.06
2022-09-11T10:04:15.210Z,101210.00
2022-09-11T10:06:48.660Z,101202.41
2022-09-11T10:09:26.428Z,101212.47
2022-09-11T10:12:04.106Z,101205.66
2022-09-11T10:14:52.200Z,101169.94
2022-09-11T10:17:32.864Z,101180.94
2022-09-11T10:20:23.062Z,101215.44
2022-09-11T10:22:55.554Z,101221.56
2022-09-11T10:25:30.117Z,101172.75
2022-09-11T10:28:11.306Z,101222.75
2022-09-11T10:30:59.267Z,101212.75
2022-09-11T10:33:40.500Z,101209.31
2022-09-11T10:36:12.269Z,101206.38
2022-09-11T10:38:48.189Z,101214.13
2022-09-11T10:41:23.399Z,101185.41
2022-09-11T10:44:04.103Z,101216.31
2022-09-11T10:46:43.479Z,101210.69
2022-09-11T10:49:21.823Z,101181.84
2022-09-11T10:52:08.580Z,101217.28
2022-09-11T10:54:55.299Z,101212.88
2022-09-11T10:57:47.326Z,101213.56
2022-09-11T11:00:22.747Z,101200.75
2022-09-11T11:03:17.105Z,101219.63
2022-09-11T11:06:07.407Z,101216.84
2022-09-11T11:09:11.440Z,101202.31
2022-09-11T11:11:59.463Z,101211.84
2022-09-11T11:14:54.686Z,101178.25
2022-09-11T11:17:45.112Z,101226.28
2022-09-11T11:20:29.013Z,101214.59
2022-09-11T11:23:16.274Z,101219.16
2022-09-11T11:26:07.210Z,101212.72
2022-09-11T11:28:54.181Z,101199.66
2022-09-11T11:31:33.534Z,101199.53
2022-09-11T11:34:16.958Z,101190.16
2022-09-11T11:37:07.801Z,101215.56
2022-09-11T11:39:57.305Z,101215.47
2022-09-11T11:42:44.190Z,101180.19
2022-09-11T11:45:27.682Z,101206.25
2022-09-11T11:48:05.194Z,101204.41
2022-09-11T11:50:44.415Z,101218.63
2022-09-11T11:53:24.260Z,101201.19
2022-09-11T11:56:37.643Z,101216.13
2022-09-11T11:59:24.253Z,101199.44
2022-09-11T12:02:02.265Z,101202.94
2022-09-11T12:05:02.055Z,101209.56
2022-09-11T12:07:36.697Z,101180.81
2022-09-11T12:10:21.638Z,101203.47
2022-09-11T12:12:58.452Z,101204.56
2022-09-11T12:15:36.713Z,101221.31
2022-09-11T12:18:11.104Z,101205.25
2022-09-11T12:20:44.206Z,101172.25
2022-09-11T12:23:30.671Z,101208.94
2022-09-11T12:26:10.924Z,101196.28
2022-09-11T12:28:42.579Z,101177.50
2022-09-11T12:31:18.129Z,101196.06
2022-09-11T12:33:51.322Z,101173.06
2022-09-11T12:36:47.766Z,101210.59
2022-09-11T12:39:24.997Z,101216.78
2022-09-11T12:42:20.971Z,101216.38
2022-09-11T12:44:52.270Z,101211.53
2022-09-11T12:47:27.543Z,101195.78
2022-09-11T12:50:07.337Z,101209.50
2022-09-11T12:52:44.721Z,101191.31
2022-09-11T12:55:28.358Z,101206.00
2022-09-11T12:58:04.448Z,101186.28
2022-09-11T13:00:43.122Z,101192.66
2022-09-11T13:03:22.038Z,101187.19
2022-09-11T13:05:57.048Z,101177.97
2022-09-11T13:08:34.441Z,101188.06
2022-09-11T13:11:38.107Z,101199.94
2022-09-11T13:14:46.999Z,101191.81
2022-09-11T13:17:30.578Z,101148.47
2022-09-11T13:20:05.225Z,101193.38
2022-09-11T13:22:37.462Z,101189.97
2022-09-11T13:25:14.600Z,101175.94
2022-09-11T13:27:52.566Z,101174.78
2022-09-11T13:30:25.024Z,101165.50
2022-09-11T13:33:07.760Z,101170.34
2022-09-11T13:35:45.286Z,101179.09
2022-09-11T13:38:35.659Z,101145.50
2022-09-11T13:41:13.073Z,101173.44
2022-09-11T13:43:48.679Z,101168.28
2022-09-11T13:46:21.364Z,101182.41
2022-09-11T13:48:57.830Z,101182.91
2022-09-11T13:51:31.075Z,101171.78
2022-09-11T13:54:14.356Z,101167.84
2022-09-11T13:56:54.715Z,101179.06
2022-09-11T13:59:44.483Z,101150.38
2022-09-11T14:02:25.296Z,101131.84
2022-09-11T14:05:22.053Z,101170.78
2022-09-11T14:08:01.852Z,101172.03
2022-09-11T14:10:42.368Z,101166.44
2022-09-11T14:13:17.998Z,101180.28
2022-09-11T14:15:51.882Z,101177.59
2022-09-11T14:18:29.292Z,101159.47
2022-09-11T14:21:04.006Z,101136.16
2022-09-11T14:23:43.291Z,101150.38
2022-09-11T14:26:23.061Z,101121.38
2022-09-11T14:29:00.234Z,101173.69
2022-09-11T14:31:46.232Z,101145.16
2022-09-11T14:34:20.793Z,101139.44
2022-09-11T14:37:07.884Z,101150.59
2022-09-11T14:39:57.985Z,101152.56
2022-09-11T14:42:31.692Z,101152.66
2022-09-11T14:45:25.877Z,101149.06
2022-09-11T14:47:57.221Z,101150.03
2022-09-11T14:50:28.641Z,101146.44
2022-09-11T14:52:59.937Z,101137.53
2022-09-11T14:55:31.378Z,101119.47
2022-09-11T14:58:03.823Z,101111.63
2022-09-11T15:00:35.165Z,101151.00
2022-09-11T15:03:06.603Z,101141.44
2022-09-11T15:05:38.576Z,101160.50
2022-09-11T15:08:10.756Z,101145.53
2022-09-11T15:10:42.671Z,101118.09
2022-09-11T15:13:14.448Z,101148.00
2022-09-11T15:15:46.078Z,101145.31
2022-09-11T15:18:18.307Z,101145.84
2022-09-11T15:20:49.672Z,101142.63
2022-09-11T15:23:21.100Z,101115.47
2022-09-11T15:26:01.621Z,101135.28
2022-09-11T15:28:33.150Z,101137.28
2022-09-11T15:31:04.601Z,101126.09
2022-09-11T15:33:36.115Z,101134.97
2022-09-11T15:36:07.958Z,101136.91
2022-09-11T15:38:40.980Z,101129.94
2022-09-11T15:41:12.415Z,101125.22
2022-09-11T15:43:45.173Z,101108.84
2022-09-11T15:46:18.814Z,101116.84
2022-09-11T15:48:50.583Z,101136.22
2022-09-11T15:51:23.938Z,101122.78
2022-09-11T15:54:02.462Z,101136.09
2022-09-11T15:56:35.949Z,101135.94
2022-09-11T15:59:08.107Z,101106.50
2022-09-11T16:01:40.895Z,101149.59
2022-09-11T16:04:14.905Z,101133.03
2022-09-11T16:06:48.456Z,101149.34
2022-09-11T16:09:29.098Z,101106.97
2022-09-11T16:12:01.697Z,101117.41
2022-09-11T16:14:35.346Z,101123.84
2022-09-11T16:17:07.719Z,101102.53
2022-09-11T16:19:39.087Z,101142.09
2022-09-11T16:22:10.373Z,101140.59
2022-09-11T16:24:42.434Z,101092.69
2022-09-11T16:27:13.754Z,101127.69
2022-09-11T16:30:25.850Z,101118.16
2022-09-11T16:32:39.230Z,101127.03
2022-09-11T16:35:13.340Z,101114.91
2022-09-11T16:37:44.913Z,101128.69
2022-09-11T16:40:16.451Z,101080.63
2022-09-11T16:42:47.895Z,101119.47
2022-09-11T16:45:19.716Z,101070.47
2022-09-11T16:47:51.762Z,101130.34
2022-09-11T16:50:24.291Z,101120.03
2022-09-11T16:52:55.691Z,101094.72
2022-09-11T16:55:27.060Z,101105.50
2022-09-11T16:57:58.846Z,101123.25
2022-09-11T17:00:30.230Z,101117.38
2022-09-11T17:03:01.599Z,101108.88
2022-09-11T17:05:32.921Z,101115.06
2022-09-11T17:08:04.664Z,101103.25
2022-09-11T17:10:36.085Z,101115.44
2022-09-11T17:13:08.104Z,101103.69
2022-09-11T17:15:43.527Z,101065.28
2022-09-11T17:18:15.978Z,101111.41
2022-09-11T17:20:47.471Z,101115.47
2022-09-11T17:23:19.290Z,101121.06
2022-09-11T17:25:50.980Z,101123.97
2022-09-11T17:28:22.291Z,101130.38
2022-09-11T17:30:53.634Z,101102.66
2022-09-11T17:33:25.917Z,101115.31
2022-09-11T17:35:57.304Z,101100.59
2022-09-11T17:38:28.760Z,101123.00
2022-09-11T17:41:03.853Z,101068.91
2022-09-11T17:43:36.470Z,101124.50
2022-09-11T17:46:13.552Z,101097.75
2022-09-11T17:48:45.955Z,101076.47
2022-09-11T17:51:21.218Z,101116.84
2022-09-11T17:53:56.217Z,101109.53
2022-09-11T17:56:32.396Z,101114.28
2022-09-11T17:59:03.789Z,101126.50
2022-09-11T18:01:35.236Z,101109.41
2022-09-11T18:04:07.007Z,101121.19
2022-09-11T18:06:38.928Z,101078.50
2022-09-11T18:09:16.106Z,101119.03
2022-09-11T18:11:49.867Z,101126.38
2022-09-11T18:14:21.537Z,101123.50
2022-09-11T18:16:52.904Z,101141.59
2022-09-11T18:19:24.639Z,101125.97
2022-09-11T18:21:56.071Z,101134.31
2022-09-11T18:24:29.950Z,101135.38
2022-09-11T18:27:01.490Z,101124.25
2022-09-11T18:29:33.063Z,101119.22
2022-09-11T18:32:04.566Z,101132.69
2022-09-11T18:34:36.049Z,101140.84
2022-09-11T18:37:07.741Z,101133.38
2022-09-11T18:39:40.348Z,101102.03
2022-09-11T18:42:11.731Z,101148.81
2022-09-11T18:44:44.322Z,101141.22
2022-09-11T18:47:15.655Z,101148.59
2022-09-11T18:49:48.944Z,101165.53
2022-09-11T18:52:25.439Z,101148.16
2022-09-11T18:55:00.078Z,101143.09
2022-09-11T18:57:31.572Z,101153.00
2022-09-11T19:00:03.566Z,101145.88
2022-09-11T19:02:36.255Z,101137.34
2022-09-11T19:05:08.198Z,101155.16
2022-09-11T19:07:40.027Z,101160.78
2022-09-11T19:10:12.424Z,101157.38
2022-09-11T19:12:46.890Z,101168.13
2022-09-11T19:15:19.170Z,101163.00
2022-09-11T19:17:51.618Z,101147.44
2022-09-11T19:20:22.936Z,101163.47
2022-09-11T19:22:54.893Z,101162.06
2022-09-11T19:25:29.796Z,101154.38
2022-09-11T19:28:04.653Z,101161.59
2022-09-11T19:30:39.026Z,101175.97
2022-09-11T19:33:12.825Z,101144.63
2022-09-11T19:35:44.133Z,101161.41
2022-09-11T19:38:16.602Z,101147.44
2022-09-11T19:40:48.784Z,101166.06
2022-09-11T19:43:24.874Z,101152.16
2022-09-11T19:46:06.382Z,101174.31
2022-09-11T19:48:38.267Z,101173.72
2022-09-11T19:51:27.303Z,101162.50
2022-09-11T19:54:00.726Z,101167.00
2022-09-11T19:56:33.891Z,101124.28
2022-09-11T19:59:07.098Z,101163.03
2022-09-11T20:01:38.452Z,101171.97
2022-09-11T20:04:11.304Z,101180.91
2022-09-11T20:09:30.567Z,101161.09
2022-09-11T20:12:03.277Z,101170.00
2022-09-11T20:14:34.557Z,101186.75
2022-09-11T20:17:08.798Z,101177.22
2022-09-11T20:19:44.592Z,101174.75
2022-09-11T20:22:15.922Z,101166.06
2022-09-11T20:24:49.679Z,101142.59
2022-09-11T20:27:20.937Z,101183.13
2022-09-11T20:29:52.326Z,101192.03
2022-09-11T20:32:23.848Z,101180.59
2022-09-11T20:34:55.225Z,101154.28
2022-09-11T20:37:26.532Z,101188.66
2022-09-11T20:39:58.081Z,101129.97
2022-09-11T20:42:29.828Z,101189.69
2022-09-11T20:45:01.207Z,101196.00
2022-09-11T20:47:32.652Z,101188.22
2022-09-11T20:50:04.838Z,101174.22
2022-09-11T20:52:39.526Z,101195.41
2022-09-11T20:55:11.095Z,101167.31
2022-09-11T20:57:42.478Z,101176.16
2022-09-11T21:00:14.447Z,101147.28
2022-09-11T21:02:45.857Z,101177.25
2022-09-11T21:05:17.225Z,101188.81
2022-09-11T21:07:48.591Z,101185.41
2022-09-11T21:10:19.977Z,101170.47
2022-09-11T21:12:52.347Z,101182.00
2022-09-11T21:15:23.641Z,101181.25
2022-09-11T21:17:55.206Z,101175.09
2022-09-11T21:20:26.453Z,101184.00
2022-09-11T21:22:57.824Z,101181.25
2022-09-11T21:25:29.145Z,101177.00
2022-09-11T21:28:00.615Z,101174.56
2022-09-11T21:30:31.972Z,101167.53
2022-09-11T21:33:03.418Z,101130.69
2022-09-11T21:35:36.762Z,101164.16
2022-09-11T21:38:08.718Z,101174.75
2022-09-11T21:40:40.015Z,101165.16
2022-09-11T21:43:11.296Z,101168.75
2022-09-11T21:45:45.218Z,101130.97
2022-09-11T21:48:16.589Z,101157.44
2022-09-11T21:50:48.182Z,101160.97
2022-09-11T21:53:20.256Z,101155.66
2022-09-11T21:55:51.621Z,101149.53
2022-09-11T21:58:23.106Z,101103.06
2022-09-11T22:00:54.512Z,101161.94
2022-09-11T22:03:26.558Z,101127.78
2022-09-11T22:05:58.145Z,101100.53
2022-09-11T22:08:29.452Z,101131.25
2022-09-11T22:11:03.157Z,101114.63
2022-09-11T22:13:35.575Z,101148.94
2022-09-11T22:16:12.858Z,101116.56
2022-09-11T22:18:48.525Z,101133.22
2022-09-11T22:21:20.356Z,101142.94
2022-09-11T22:23:52.412Z,101136.06
2022-09-11T22:26:24.030Z,101098.41
2022-09-11T22:28:57.290Z,101140.56
2022-09-11T22:31:28.881Z,101103.03
2022-09-11T22:34:00.304Z,101141.63
2022-09-11T22:36:32.266Z,101102.25
2022-09-11T22:39:05.350Z,101142.69
2022-09-11T22:41:36.691Z,101151.56
2022-09-11T22:44:10.979Z,101153.25
2022-09-11T22:46:45.723Z,101091.84
2022-09-11T22:49:19.546Z,101148.09
2022-09-11T22:51:50.984Z,101128.78
2022-09-11T22:54:22.414Z,101131.47
2022-09-11T22:56:53.822Z,101142.03
2022-09-11T22:59:26.363Z,101138.53
2022-09-11T23:01:58.286Z,101134.22
2022-09-11T23:04:29.715Z,101106.16
2022-09-11T23:07:16.891Z,101128.13
2022-09-11T23:09:49.604Z,101124.63
2022-09-11T23:12:20.931Z,101115.03
2022-09-11T23:14:54.162Z,101142.34
2022-09-11T23:17:26.746Z,101129.94
2022-09-11T23:19:58.083Z,101081.75
2022-09-11T23:22:29.533Z,101124.72
2022-09-11T23:25:00.997Z,101124.81
2022-09-11T23:27:33.090Z,101113.34
2022-09-11T23:30:05.002Z,101122.31
2022-09-11T23:32:41.169Z,101117.94
2022-09-11T23:35:13.191Z,101114.53
2022-09-11T23:37:45.570Z,101146.25
2022-09-11T23:40:17.557Z,101098.81
2022-09-11T23:42:48.990Z,101112.97
2022-09-11T23:45:20.729Z,101152.47
2022-09-11T23:47:52.131Z,101136.69
2022-09-11T23:50:23.381Z,101099.84
2022-09-11T23:52:54.758Z,101147.31
2022-09-11T23:55:26.198Z,101126.22
2022-09-11T23:57:57.591Z,101118.34
